Time;durP1;ratioP1;P1;durP2;ratioP2;P2;SDS_P1;SDS_P2;PMS_P1;PMS_P2;Temp;Humidity;BMP_temperature;BMP_pressure;BME280_temperature;BME280_humidity;BME280_pressure;Samples;Min_cycle;Max_cycle;Signal;HPM_P1;HPM_P2
2023/02/15 00:02:24;;;;;;;19.98;8.63;;;;;;;2.44;100.00;102709.78;6264221;28;20068;-76
2023/02/15 00:05:26;;;;;;;23.58;8.95;;;;;;;2.43;100.00;102710.63;6269225;28;20053;-75
2023/02/15 00:08:28;;;;;;;19.63;7.80;;;;;;;2.35;100.00;102705.34;6274212;28;20040;-76
2023/02/15 00:11:42;;;;;;;19.13;9.20;;;;;;;2.33;100.00;102699.28;6277126;28;20068;-75
2023/02/15 00:14:44;;;;;;;23.42;8.70;;;;;;;2.29;100.00;102697.50;6276673;28;20360;-76
2023/02/15 00:17:45;;;;;;;18.60;7.95;;;;;;;2.24;100.00;102700.03;6260976;28;20056;-76
2023/02/15 00:20:48;;;;;;;21.52;7.63;;;;;;;2.22;100.00;102693.06;6252369;28;20060;-76
2023/02/15 00:23:49;;;;;;;18.55;7.65;;;;;;;2.19;100.00;102688.75;6268235;28;20052;-76
2023/02/15 00:26:51;;;;;;;24.58;8.77;;;;;;;2.18;100.00;102678.31;6276742;28;20592;-76
2023/02/15 00:29:52;;;;;;;16.98;8.15;;;;;;;2.18;100.00;102683.50;6276252;28;20052;-76
2023/02/15 00:32:53;;;;;;;20.33;8.27;;;;;;;2.13;100.00;102685.19;6261200;28;20060;-75
2023/02/15 00:35:58;;;;;;;16.50;7.50;;;;;;;2.08;100.00;102687.72;6267748;28;20052;-75
2023/02/15 00:38:59;;;;;;;20.77;7.47;;;;;;;2.08;100.00;102694.63;6275206;28;20052;-75
2023/02/15 00:42:01;;;;;;;23.33;9.63;;;;;;;2.01;100.00;102686.78;6269707;28;20057;-75
2023/02/15 00:45:02;;;;;;;19.70;8.60;;;;;;;2.03;100.00;102689.38;6276009;28;20357;-76
2023/02/15 00:48:04;;;;;;;23.73;9.18;;;;;;;1.95;100.00;102685.81;6259778;28;20064;-76
2023/02/15 00:51:07;;;;;;;22.67;9.10;;;;;;;1.93;100.00;102679.75;6273807;28;20529;-76
2023/02/15 00:54:08;;;;;;;19.25;9.07;;;;;;;1.93;100.00;102680.59;6251054;28;20425;-76
2023/02/15 00:57:09;;;;;;;24.10;8.43;;;;;;;1.87;100.00;102683.13;6251180;28;20049;-75
2023/02/15 01:00:12;;;;;;;17.38;7.60;;;;;;;1.81;100.00;102675.25;6262786;28;20045;-75
2023/02/15 01:03:15;;;;;;;13.13;6.55;;;;;;;1.84;100.00;102677.03;6273548;28;20041;-76
2023/02/15 01:06:18;;;;;;;17.40;7.40;;;;;;;1.86;100.00;102672.72;6275776;28;20048;-76
2023/02/15 01:09:19;;;;;;;13.82;6.55;;;;;;;1.84;100.00;102669.25;6255118;28;20042;-76
2023/02/15 01:12:21;;;;;;;13.10;6.38;;;;;;;1.85;100.00;102676.16;6272059;28;20075;-76
2023/02/15 01:15:23;;;;;;;15.05;6.78;;;;;;;1.85;100.00;102668.38;6275450;28;20048;-76
2023/02/15 01:18:24;;;;;;;15.50;6.82;;;;;;;1.71;100.00;102671.66;6274246;28;20346;-76
2023/02/15 01:21:27;;;;;;;13.35;6.63;;;;;;;1.68;100.00;102662.97;6275463;28;20064;-76
2023/02/15 01:24:28;;;;;;;14.52;6.28;;;;;;;1.62;100.00;102662.88;6270136;28;20052;-75
2023/02/15 01:27:30;;;;;;;11.77;5.65;;;;;;;1.56;100.00;102658.50;6267200;28;20046;-76
2023/02/15 01:30:33;;;;;;;13.65;6.72;;;;;;;1.39;100.00;102655.63;6250297;28;20140;-76
2023/02/15 01:33:35;;;;;;;16.30;6.43;;;;;;;1.40;100.00;102652.19;6263522;28;20128;-75
2023/02/15 01:36:38;;;;;;;12.95;6.03;;;;;;;1.44;100.00;102650.53;6274948;28;20064;-76
2023/02/15 01:39:39;;;;;;;16.48;6.47;;;;;;;1.40;100.00;102643.56;6267222;28;20045;-76
2023/02/15 01:42:41;;;;;;;10.25;5.45;;;;;;;1.37;100.00;102640.94;6266870;28;20048;-76
2023/02/15 01:45:46;;;;;;;13.07;6.30;;;;;;;1.41;100.00;102632.34;6258640;28;20045;-76
2023/02/15 01:48:50;;;;;;;12.57;5.57;;;;;;;1.29;100.00;102630.47;6266790;28;20075;-76
2023/02/15 01:51:53;;;;;;;11.15;6.03;;;;;;;1.33;100.00;102631.38;6258608;28;20061;-75
2023/02/15 01:54:55;;;;;;;13.07;5.93;;;;;;;1.19;100.00;102620.81;6267252;28;20045;-76
2023/02/15 01:57:56;;;;;;;10.95;5.20;;;;;;;1.24;100.00;102624.34;6275070;28;20052;-76
2023/02/15 02:01:00;;;;;;;11.55;5.50;;;;;;;1.20;100.00;102625.13;6274933;28;20352;-76
2023/02/15 02:04:09;;;;;;;9.27;6.22;;;;;;;1.22;100.00;102613.94;6273200;28;20048;-75
2023/02/15 02:07:15;;;;;;;10.50;6.05;;;;;;;1.24;100.00;102617.44;6265469;28;20048;-76
2023/02/15 02:10:18;;;;;;;12.27;6.07;;;;;;;1.26;100.00;102614.88;6266677;28;20046;-76
2023/02/15 02:13:20;;;;;;;12.52;5.75;;;;;;;1.25;100.00;102608.81;6274746;28;20444;-76
2023/02/15 02:16:26;;;;;;;10.80;5.68;;;;;;;1.27;100.00;102608.81;6274122;28;20041;-76
2023/02/15 02:19:58;;;;;;;12.75;5.55;;;;;;;1.17;100.00;102615.59;6274876;28;20118;-76
2023/02/15 02:23:17;;;;;;;11.45;5.93;;;;;;;0.73;100.00;102609.72;6274863;28;20053;-75
2023/02/15 02:26:48;;;;;;;7.40;4.85;;;;;;;0.75;100.00;102615.75;6274203;28;20124;-76
2023/02/15 02:30:21;;;;;;;9.10;4.80;;;;;;;0.86;100.00;102608.16;6266587;28;20352;-75
2023/02/15 02:33:40;;;;;;;9.10;5.15;;;;;;;0.94;100.00;102611.75;6273318;28;20052;-76
2023/02/15 02:36:50;;;;;;;9.57;4.60;;;;;;;0.90;100.00;102605.66;6274108;28;20041;-76
2023/02/15 02:40:04;;;;;;;12.20;5.60;;;;;;;1.00;100.00;102606.72;6266907;28;20053;-75
2023/02/15 02:43:12;;;;;;;10.90;5.07;;;;;;;0.96;100.00;102599.75;6274372;28;20183;-76
2023/02/15 02:46:19;;;;;;;8.93;4.90;;;;;;;1.05;100.00;102599.03;6262584;28;20042;-76
2023/02/15 02:49:31;;;;;;;10.20;5.07;;;;;;;1.09;100.00;102596.50;6254403;28;20179;-76
2023/02/15 02:52:38;;;;;;;8.77;4.88;;;;;;;1.11;100.00;102597.38;6257916;28;20053;-76
2023/02/15 02:55:43;;;;;;;12.48;6.38;;;;;;;1.10;100.00;102590.47;6258506;28;20042;-76
2023/02/15 02:58:49;;;;;;;14.02;5.78;;;;;;;1.05;100.00;102586.94;6274296;28;20067;-75
2023/02/15 03:01:55;;;;;;;11.35;5.40;;;;;;;1.00;100.00;102578.22;6278818;28;20053;-75
2023/02/15 03:05:03;;;;;;;15.15;6.15;;;;;;;1.01;100.00;102585.16;6269183;28;20049;-76
2023/02/15 03:08:09;;;;;;;12.05;6.57;;;;;;;1.00;100.00;102581.69;6278542;28;20048;-76
2023/02/15 03:11:12;;;;;;;11.05;5.43;;;;;;;0.97;100.00;102584.22;6267753;28;20175;-76
2023/02/15 03:14:16;;;;;;;14.13;5.55;;;;;;;0.90;100.00;102576.31;6257030;28;20053;-76
2023/02/15 03:17:20;;;;;;;14.70;6.00;;;;;;;0.84;100.00;102578.81;6278237;28;20123;-75
2023/02/15 03:20:27;;;;;;;12.57;6.65;;;;;;;0.76;100.00;102565.75;6278421;28;20045;-76
2023/02/15 03:23:31;;;;;;;13.55;6.65;;;;;;;0.83;100.00;102571.91;6278202;28;20352;-76
2023/02/15 03:26:35;;;;;;;12.90;5.93;;;;;;;0.86;100.00;102566.75;6277880;28;20049;-76
2023/02/15 03:29:38;;;;;;;15.75;6.88;;;;;;;0.86;100.00;102562.47;6263665;28;20049;-76
2023/02/15 03:32:41;;;;;;;16.20;6.00;;;;;;;0.88;100.00;102562.50;6260337;28;20067;-76
2023/02/15 03:35:50;;;;;;;14.50;6.65;;;;;;;0.89;100.00;102557.34;6261956;28;20052;-76
2023/02/15 03:38:59;;;;;;;12.32;6.82;;;;;;;0.90;100.00;102558.22;6270356;28;20053;-76
2023/02/15 03:42:10;;;;;;;10.73;5.90;;;;;;;0.89;100.00;102548.72;6268150;28;20049;-76
2023/02/15 03:45:18;;;;;;;11.32;4.88;;;;;;;0.86;100.00;102540.88;6252991;28;20037;-75
2023/02/15 03:48:20;;;;;;;12.15;5.80;;;;;;;0.89;100.00;102538.34;6253100;28;20037;-76
2023/02/15 03:51:34;;;;;;;8.80;5.03;;;;;;;0.88;100.00;102547.84;6252690;28;20353;-76
2023/02/15 03:54:42;;;;;;;10.40;5.75;;;;;;;0.86;100.00;102536.56;6252963;28;20049;-76
2023/02/15 04:04:36;;;;;;;13.55;6.10;;;;;;;0.79;100.00;102539.94;6252692;28;20041;-76
2023/02/15 04:07:38;;;;;;;12.68;6.20;;;;;;;0.77;100.00;102546.78;6255924;28;20047;-76
2023/02/15 04:10:55;;;;;;;13.75;5.53;;;;;;;0.77;100.00;102544.19;6252715;28;20053;-76
2023/02/15 04:13:57;;;;;;;13.07;6.10;;;;;;;0.75;100.00;102543.31;6253818;28;20115;-76
2023/02/15 04:16:57;;;;;;;13.68;5.90;;;;;;;0.68;100.00;102532.00;6261621;28;20049;-76
2023/02/15 04:26:38;;;;;;;13.02;6.43;;;;;;;0.68;100.00;102538.88;6251628;28;20045;-76
2023/02/15 04:29:39;;;;;;;9.13;4.93;;;;;;;0.72;100.00;102541.53;6267462;28;20044;-76
2023/02/15 04:32:41;;;;;;;13.73;6.30;;;;;;;0.71;100.00;102544.09;6276753;28;20056;-77
2023/02/15 04:35:44;;;;;;;8.93;4.82;;;;;;;0.61;100.00;102535.31;6267653;28;20433;-76
2023/02/15 04:38:47;;;;;;;11.30;6.03;;;;;;;0.62;100.00;102542.25;6268401;28;20078;-76
2023/02/15 04:41:48;;;;;;;8.23;4.90;;;;;;;0.64;100.00;102529.34;6276624;28;20053;-76
2023/02/15 04:44:50;;;;;;;8.45;4.57;;;;;;;0.59;100.00;102530.97;6267953;28;20053;-76
2023/02/15 04:47:51;;;;;;;9.63;5.43;;;;;;;0.53;100.00;102529.16;6266518;28;20045;-76
2023/02/15 04:50:52;;;;;;;15.77;5.97;;;;;;;0.58;100.00;102522.34;6263832;28;20049;-76
2023/02/15 04:53:56;;;;;;;12.15;5.18;;;;;;;0.47;100.00;102513.53;6268705;28;20068;-76
2023/02/15 04:56:58;;;;;;;10.75;4.65;;;;;;;0.48;100.00;102510.97;6267516;28;20052;-76
2023/02/15 04:59:59;;;;;;;12.82;5.55;;;;;;;0.54;100.00;102512.78;6260636;28;20045;-76
2023/02/15 05:03:01;;;;;;;10.40;5.22;;;;;;;0.54;100.00;102505.03;6256940;28;20051;-76
2023/02/15 05:06:02;;;;;;;12.68;6.60;;;;;;;0.52;100.00;102504.13;6255666;28;20052;-77
2023/02/15 05:09:05;;;;;;;11.45;6.15;;;;;;;0.56;100.00;102505.94;6262272;28;20052;-77
2023/02/15 05:12:07;;;;;;;10.32;5.70;;;;;;;0.54;100.00;102501.56;6262327;28;20051;-76
2023/02/15 05:15:09;;;;;;;16.83;7.32;;;;;;;0.47;100.00;102490.25;6260656;28;20041;-76
2023/02/15 05:18:10;;;;;;;15.98;6.15;;;;;;;0.49;100.00;102493.72;6253043;28;20044;-77
2023/02/15 05:21:13;;;;;;;10.75;5.47;;;;;;;0.47;100.00;102495.44;6261927;28;20052;-75
2023/02/15 05:31:03;;;;;;;10.50;5.18;;;;;;;0.43;100.00;102511.75;6264720;28;20045;-77
2023/02/15 05:34:05;;;;;;;10.07;5.35;;;;;;;0.24;100.00;102500.22;6260812;28;20060;-77
2023/02/15 05:37:07;;;;;;;9.55;5.00;;;;;;;0.30;100.00;102502.03;6256406;28;20169;-77
2023/02/15 05:40:11;;;;;;;14.38;6.22;;;;;;;0.34;100.00;102502.13;6258127;28;20126;-77
2023/02/15 05:43:12;;;;;;;10.82;5.82;;;;;;;0.35;100.00;102496.09;6241369;28;20042;-77
2023/02/15 05:46:14;;;;;;;12.15;5.40;;;;;;;0.30;100.00;102496.88;6231681;28;20044;-77
2023/02/15 05:49:15;;;;;;;14.27;5.78;;;;;;;0.27;100.00;102486.47;6244527;28;20512;-77
2023/02/15 05:52:16;;;;;;;14.70;7.00;;;;;;;0.25;100.00;102478.69;6252873;28;20128;-78
2023/02/15 05:55:20;;;;;;;11.10;5.75;;;;;;;0.27;100.00;102469.22;6251615;28;20041;-77
2023/02/15 05:58:21;;;;;;;9.27;5.03;;;;;;;0.22;100.00;102469.16;6255418;28;20056;-77
2023/02/15 06:01:22;;;;;;;14.45;6.18;;;;;;;0.19;100.00;102474.28;6259426;28;20045;-76
2023/02/15 06:04:24;;;;;;;13.95;5.68;;;;;;;0.21;100.00;102472.59;6261241;28;20159;-77
2023/02/15 06:07:25;;;;;;;13.30;5.45;;;;;;;0.21;100.00;102475.16;6259072;28;20041;-77
2023/02/15 06:10:28;;;;;;;12.65;6.05;;;;;;;0.18;100.00;102475.16;6271757;28;20049;-77
2023/02/15 06:13:30;;;;;;;16.45;6.07;;;;;;;0.20;100.00;102470.00;6268795;28;20045;-77
2023/02/15 06:16:31;;;;;;;10.60;6.03;;;;;;;0.14;100.00;102477.66;6263825;28;20046;-77
2023/02/15 06:19:32;;;;;;;12.52;5.80;;;;;;;0.10;100.00;102471.53;6261802;28;20049;-77
2023/02/15 06:22:34;;;;;;;13.20;7.00;;;;;;;0.11;100.00;102469.81;6261715;28;20049;-77
2023/02/15 06:25:36;;;;;;;17.77;5.68;;;;;;;0.14;100.00;102464.72;6259167;28;20045;-77
2023/02/15 06:28:38;;;;;;;9.93;5.28;;;;;;;0.10;100.00;102468.97;6259319;28;20352;-77
2023/02/15 06:31:39;;;;;;;24.73;6.38;;;;;;;0.14;100.00;102480.22;6261562;28;20053;-77
2023/02/15 06:34:41;;;;;;;17.27;6.38;;;;;;;0.09;100.00;102472.41;6260671;28;20041;-77
2023/02/15 06:37:42;;;;;;;11.63;6.13;;;;;;;0.13;100.00;102471.56;6265893;28;20346;-77
2023/02/15 06:40:45;;;;;;;10.07;5.25;;;;;;;0.15;100.00;102471.63;6264143;28;20433;-77
2023/02/15 06:43:46;;;;;;;14.10;5.40;;;;;;;0.12;100.00;102476.72;6265733;28;20050;-77
2023/02/15 06:46:47;;;;;;;11.10;5.32;;;;;;;0.13;100.00;102475.88;6263981;28;20357;-77
2023/02/15 06:49:49;;;;;;;15.48;6.82;;;;;;;0.12;100.00;102484.50;6266140;28;20078;-77
2023/02/15 06:52:50;;;;;;;11.25;6.13;;;;;;;0.14;100.00;102480.22;6262890;28;20049;-77
2023/02/15 06:55:53;;;;;;;15.13;7.25;;;;;;;0.15;100.00;102488.00;6263703;28;20049;-77
2023/02/15 06:58:54;;;;;;;10.65;6.40;;;;;;;0.19;100.00;102486.34;6266004;28;20444;-77
2023/02/15 07:01:55;;;;;;;14.40;6.40;;;;;;;0.21;100.00;102487.22;6263644;28;20056;-77
2023/02/15 07:04:57;;;;;;;18.60;6.57;;;;;;;0.23;100.00;102494.19;6263549;28;20096;-77
2023/02/15 07:07:59;;;;;;;17.40;7.07;;;;;;;0.22;100.00;102494.13;6265606;28;20041;-77
2023/02/15 07:14:17;;;;;;;11.32;6.25;;;;;;;0.14;100.00;102494.03;6265179;28;20047;-77
2023/02/15 07:17:19;;;;;;;13.52;6.38;;;;;;;0.14;100.00;102495.75;6269827;28;20049;-77
2023/02/15 07:20:22;;;;;;;13.73;5.43;;;;;;;0.17;100.00;102490.59;6258212;28;20037;-77
2023/02/15 07:23:25;;;;;;;10.07;5.43;;;;;;;0.19;100.00;102494.97;6278193;28;20041;-77
2023/02/15 07:26:28;;;;;;;15.00;5.93;;;;;;;0.22;100.00;102491.56;6274725;28;20037;-77
2023/02/15 07:29:29;;;;;;;9.70;5.95;;;;;;;0.25;100.00;102489.03;6264080;28;20067;-77
2023/02/15 07:32:32;;;;;;;16.48;7.05;;;;;;;0.30;100.00;102481.34;6261663;28;20063;-77
2023/02/15 07:35:33;;;;;;;20.63;6.75;;;;;;;0.33;100.00;102478.81;6263409;28;20052;-77
2023/02/15 07:38:36;;;;;;;9.93;5.78;;;;;;;0.36;100.00;102471.97;6263844;28;20049;-77
2023/02/15 07:41:39;;;;;;;13.65;6.78;;;;;;;0.40;100.00;102465.13;6261545;28;20056;-77
2023/02/15 07:44:40;;;;;;;12.20;5.75;;;;;;;0.41;100.00;102452.25;6260802;28;20048;-77
2023/02/15 07:47:42;;;;;;;12.13;5.35;;;;;;;0.43;100.00;102453.13;6263658;28;20048;-77
2023/02/15 07:50:43;;;;;;;15.68;6.93;;;;;;;0.49;100.00;102454.94;6263655;28;20048;-77
2023/02/15 07:53:44;;;;;;;15.50;6.57;;;;;;;0.48;100.00;102448.91;6265592;28;20060;-77
2023/02/15 07:56:47;;;;;;;15.32;7.03;;;;;;;0.54;100.00;102457.59;6261138;28;20045;-78
2023/02/15 07:59:48;;;;;;;14.82;6.55;;;;;;;0.54;100.00;102448.13;6263289;28;20045;-78
2023/02/15 08:03:12;;;;;;;19.38;8.18;;;;;;;0.59;100.00;102441.31;6263278;28;20048;-78
2023/02/15 08:06:13;;;;;;;16.45;7.45;;;;;;;0.67;100.00;102436.25;6261611;28;20037;-79
2023/02/15 08:09:14;;;;;;;10.68;5.30;;;;;;;0.72;100.00;102432.88;6277586;28;20459;-81
2023/02/15 08:12:17;;;;;;;13.23;6.72;;;;;;;0.72;100.00;102424.25;6267143;28;20433;-80
2023/02/15 08:15:18;;;;;;;14.43;6.75;;;;;;;0.76;100.00;102432.06;6256033;28;20042;-79
2023/02/15 08:18:19;;;;;;;15.32;7.78;;;;;;;0.84;100.00;102433.91;6252201;28;20048;-80
2023/02/15 08:21:21;;;;;;;12.18;6.25;;;;;;;0.89;100.00;102427.06;6259114;28;20045;-79
2023/02/15 08:24:25;;;;;;;11.95;6.38;;;;;;;0.94;100.00;102430.59;6267057;28;20068;-78
2023/02/15 08:27:27;;;;;;;13.30;5.63;;;;;;;1.00;100.00;102431.56;6263695;28;20048;-77
2023/02/15 08:30:29;;;;;;;23.30;6.65;;;;;;;1.09;100.00;102432.50;6265423;28;20040;-78
2023/02/15 08:33:30;;;;;;;18.75;8.30;;;;;;;1.12;100.00;102432.56;6276513;28;20448;-79
2023/02/15 08:36:32;;;;;;;13.48;6.22;;;;;;;1.20;100.00;102421.44;6271317;28;20040;-78
2023/02/15 08:39:33;;;;;;;18.25;6.53;;;;;;;1.22;100.00;102422.31;6274648;28;20130;-77
2023/02/15 08:42:36;;;;;;;13.30;6.68;;;;;;;1.23;100.00;102424.06;6276321;28;20041;-77
2023/02/15 08:45:37;;;;;;;14.20;6.75;;;;;;;1.32;100.00;102425.91;6267717;28;20048;-77
2023/02/15 08:48:39;;;;;;;13.60;6.85;;;;;;;1.41;100.00;102422.53;6276395;28;20052;-79
2023/02/15 08:51:41;;;;;;;12.45;5.53;;;;;;;1.45;100.00;102416.53;6276081;28;20037;-76
2023/02/15 08:54:42;;;;;;;14.35;6.78;;;;;;;1.50;100.00;102408.00;6267853;28;20045;-78
2023/02/15 08:57:45;;;;;;;14.95;7.68;;;;;;;1.55;100.00;102413.22;6269793;28;20061;-76
2023/02/15 09:00:47;;;;;;;16.27;7.80;;;;;;;1.65;100.00;102402.09;6276242;28;20056;-76
2023/02/15 09:03:52;;;;;;;18.38;6.72;;;;;;;1.71;100.00;102409.91;6275616;28;20060;-79
2023/02/15 09:06:54;;;;;;;19.80;8.30;;;;;;;1.79;100.00;102407.41;6265568;28;20171;-77
2023/02/15 09:09:56;;;;;;;16.65;6.78;;;;;;;1.87;100.00;102405.75;6250935;28;20061;-76
2023/02/15 09:12:58;;;;;;;19.27;8.18;;;;;;;1.97;100.00;102404.13;6250859;28;20064;-75
2023/02/15 09:16:01;;;;;;;18.42;7.90;;;;;;;2.12;100.00;102403.38;6250616;28;20049;-76
2023/02/15 09:19:04;;;;;;;16.08;7.88;;;;;;;2.22;100.00;102394.81;6258333;28;20060;-76
2023/02/15 09:22:05;;;;;;;24.67;8.40;;;;;;;2.28;100.00;102397.47;6275147;28;20384;-75
2023/02/15 09:25:07;;;;;;;20.17;8.23;;;;;;;2.29;100.00;102381.91;6275496;28;20049;-75
2023/02/15 09:28:10;;;;;;;18.02;7.95;;;;;;;2.37;100.00;102400.13;6272448;28;20063;-75
2023/02/15 09:31:14;;;;;;;17.20;7.90;;;;;;;2.51;100.00;102400.22;6270214;28;20040;-75
2023/02/15 09:34:18;;;;;;;17.10;7.13;;;;;;;2.60;100.00;102402.00;6270709;28;20049;-75
2023/02/15 09:37:19;;;;;;;17.55;7.95;;;;;;;2.72;100.00;102400.31;6274472;28;20041;-76
2023/02/15 09:40:21;;;;;;;15.75;7.70;;;;;;;2.82;100.00;102402.97;6269140;28;20040;-75
2023/02/15 09:43:39;;;;;;;16.15;7.22;;;;;;;2.99;100.00;102406.53;6264132;28;20052;-74
2023/02/15 09:47:03;;;;;;;18.75;8.27;;;;;;;3.08;100.00;102400.50;6263464;28;20045;-74
2023/02/15 09:50:15;;;;;;;19.75;7.28;;;;;;;3.11;100.00;102405.72;6274438;28;20075;-76
2023/02/15 09:53:44;;;;;;;14.65;6.93;;;;;;;3.15;100.00;102399.69;6274802;28;20056;-76
2023/02/15 09:56:50;;;;;;;14.70;6.10;;;;;;;3.21;100.00;102391.91;6267027;28;20046;-75
2023/02/15 10:00:03;;;;;;;15.27;7.45;;;;;;;3.26;100.00;102390.19;6266631;28;20075;-75
2023/02/15 10:03:24;;;;;;;16.90;6.88;;;;;;;3.31;100.00;102399.72;6268826;28;20048;-75
2023/02/15 10:06:33;;;;;;;23.23;6.57;;;;;;;3.38;100.00;102399.75;6272039;28;20051;-75
2023/02/15 10:09:51;;;;;;;14.70;6.85;;;;;;;3.46;100.00;102385.06;6278709;28;20049;-76
2023/02/15 10:13:13;;;;;;;15.57;6.63;;;;;;;3.53;100.00;102385.06;6279662;28;20485;-75
2023/02/15 10:16:27;;;;;;;16.67;6.82;;;;;;;3.62;100.00;102385.94;6267768;28;20041;-75
2023/02/15 10:19:40;;;;;;;15.15;6.93;;;;;;;3.70;100.00;102386.84;6260462;28;20047;-75
2023/02/15 10:22:56;;;;;;;14.85;6.50;;;;;;;3.81;100.00;102388.59;6279675;28;20052;-74
2023/02/15 10:26:05;;;;;;;24.17;9.00;;;;;;;3.97;100.00;102393.81;6279379;28;20468;-74
2023/02/15 10:29:16;;;;;;;15.57;6.53;;;;;;;4.09;100.00;102401.63;6276660;28;20103;-74
2023/02/15 10:32:24;;;;;;;19.52;7.60;;;;;;;4.20;100.00;102394.66;6279601;28;20060;-74
2023/02/15 10:35:37;;;;;;;16.77;7.30;;;;;;;4.33;100.00;102398.13;6276772;28;20436;-74
2023/02/15 10:38:42;;;;;;;13.30;6.30;;;;;;;4.46;100.00;102391.19;6270992;28;20037;-74
2023/02/15 10:41:51;;;;;;;22.50;7.03;;;;;;;4.52;100.00;102392.03;6254845;28;20049;-74
2023/02/15 10:45:07;;;;;;;15.88;6.88;;;;;;;4.68;100.00;102394.59;6255705;28;20049;-74
2023/02/15 10:48:27;;;;;;;20.27;7.72;;;;;;;4.76;100.00;102379.81;6260005;28;20050;-74
2023/02/15 10:51:41;;;;;;;13.43;6.32;;;;;;;4.82;100.00;102379.81;6275527;28;20052;-74
2023/02/15 10:54:46;;;;;;;17.67;7.30;;;;;;;4.91;100.00;102381.53;6268746;28;20434;-74
2023/02/15 10:57:59;;;;;;;17.48;6.03;;;;;;;5.00;100.00;102371.94;6278542;28;20187;-74
2023/02/15 11:01:07;;;;;;;17.95;7.05;;;;;;;5.09;100.00;102368.44;6278768;28;20049;-74
2023/02/15 11:04:33;;;;;;;18.63;6.87;;;;;;;5.22;100.00;102358.78;6278518;28;20194;-74
2023/02/15 11:07:39;;;;;;;20.75;7.15;;;;;;;5.24;100.00;102359.66;6278313;28;20048;-73
2023/02/15 11:10:45;;;;;;;13.43;6.32;;;;;;;5.33;100.00;102357.00;6278696;28;20130;-74
2023/02/15 11:13:50;;;;;;;17.23;6.38;;;;;;;5.43;100.00;102361.28;6277638;28;20057;-76
2023/02/15 11:16:58;;;;;;;13.02;6.43;;;;;;;5.48;100.00;102359.50;6262110;28;20048;-75
2023/02/15 11:20:08;;;;;;;21.35;7.10;;;;;;;5.62;100.00;102355.94;6268096;28;20045;-75
2023/02/15 11:23:15;;;;;;;14.00;6.60;;;;;;;5.83;100.00;102358.41;6271817;28;20056;-76
2023/02/15 11:26:22;;;;;;;18.58;6.97;;;;;;;6.02;100.00;102361.75;6265597;28;20049;-75
2023/02/15 11:29:28;;;;;;;16.35;6.50;;;;;;;6.14;100.00;102353.84;6265241;28;20041;-75
2023/02/15 11:32:33;;;;;;;19.90;7.65;;;;;;;6.26;100.00;102340.63;6267291;28;20045;-75
2023/02/15 11:35:43;;;;;;;16.58;6.18;;;;;;;6.38;100.00;102347.50;6263209;28;20050;-75
2023/02/15 11:38:47;;;;;;;19.02;5.97;;;;;;;6.50;100.00;102339.53;6276122;28;20112;-74
2023/02/15 11:41:53;;;;;;;16.35;7.25;;;;;;;6.65;100.00;102337.63;6275230;28;20060;-75
2023/02/15 11:45:02;;;;;;;17.02;6.47;;;;;;;6.80;100.00;102332.22;6261434;28;20140;-76
2023/02/15 11:48:11;;;;;;;16.35;6.40;;;;;;;7.00;100.00;102316.31;6253988;28;20056;-75
2023/02/15 11:51:17;;;;;;;14.82;6.18;;;;;;;7.13;100.00;102320.50;6264382;28;20040;-75
2023/02/15 11:54:22;;;;;;;15.10;6.65;;;;;;;7.16;100.00;102317.81;6265201;28;20041;-76
2023/02/15 11:57:29;;;;;;;16.17;7.35;;;;;;;7.28;100.00;102309.81;6252685;28;20434;-75
2023/02/15 12:00:35;;;;;;;16.25;7.25;;;;;;;7.42;100.00;102319.19;6252760;28;20052;-74
2023/02/15 12:03:46;;;;;;;14.23;6.25;;;;;;;7.55;100.00;102326.84;6269366;28;20429;-74
2023/02/15 12:06:53;;;;;;;18.48;8.15;;;;;;;7.73;100.00;102309.97;6257324;28;20057;-74
2023/02/15 12:10:03;;;;;;;12.93;5.50;;;;;;;7.88;100.00;102301.00;6268313;28;20057;-75
2023/02/15 12:13:13;;;;;;;19.25;7.40;;;;;;;8.03;100.00;102300.72;6252256;28;20413;-74
2023/02/15 12:16:14;;;;;;;17.88;6.75;;;;;;;8.15;100.00;102304.91;6260646;28;20460;-75
2023/02/15 12:19:31;;;;;;;17.13;7.05;;;;;;;8.31;100.00;102305.47;6255602;28;20037;-75
2023/02/15 12:22:36;;;;;;;16.45;7.47;;;;;;;8.37;100.00;102298.41;6277217;28;20051;-74
2023/02/15 12:25:42;;;;;;;14.38;6.05;;;;;;;8.42;100.00;102294.81;6276617;28;20093;-76
2023/02/15 12:28:49;;;;;;;21.50;7.30;;;;;;;8.52;100.00;102297.22;6276849;28;20049;-75
2023/02/15 12:31:53;;;;;;;17.80;7.80;;;;;;;8.63;100.00;102302.28;6267346;28;20441;-74
2023/02/15 12:35:01;;;;;;;14.02;6.00;;;;;;;8.79;100.00;102289.69;6251923;28;20050;-74
2023/02/15 12:38:06;;;;;;;16.70;6.07;;;;;;;8.94;100.00;102285.88;6269892;28;20424;-74
2023/02/15 12:41:23;;;;;;;14.57;6.68;;;;;;;9.00;98.98;102281.38;6268459;28;20079;-74
2023/02/15 12:44:28;;;;;;;14.90;7.07;;;;;;;9.16;94.87;102276.63;6263732;28;20429;-74
2023/02/15 12:47:31;;;;;;;13.05;6.55;;;;;;;9.03;96.18;102270.81;6262836;28;20357;-75
2023/02/15 12:50:32;;;;;;;17.15;6.45;;;;;;;9.08;99.71;102262.81;6251293;28;20390;-74
2023/02/15 12:53:37;;;;;;;13.75;6.38;;;;;;;9.09;98.83;102267.19;6254446;28;20168;-75
2023/02/15 12:56:38;;;;;;;17.00;6.65;;;;;;;9.17;97.89;102259.13;6266327;28;20049;-75
2023/02/15 12:59:49;;;;;;;17.25;6.50;;;;;;;9.27;95.74;102265.91;6268950;28;20049;-75
2023/02/15 13:02:53;;;;;;;20.75;7.03;;;;;;;9.33;97.95;102260.50;6267903;28;20053;-76
2023/02/15 13:05:56;;;;;;;14.45;6.05;;;;;;;9.31;97.66;102247.44;6267022;28;20064;-75
2023/02/15 13:09:12;;;;;;;17.08;5.65;;;;;;;9.32;98.43;102240.44;6261795;28;20053;-75
2023/02/15 13:12:20;;;;;;;15.07;6.78;;;;;;;9.23;95.82;102241.50;6272417;28;20603;-75
2023/02/15 13:15:31;;;;;;;21.38;6.20;;;;;;;9.25;98.53;102230.97;6255355;28;20045;-75
2023/02/15 13:18:35;;;;;;;13.70;5.78;;;;;;;9.39;98.24;102226.25;6275449;28;20368;-75
2023/02/15 13:21:40;;;;;;;15.75;7.05;;;;;;;9.45;96.96;102225.22;6252906;28;20052;-74
2023/02/15 13:24:47;;;;;;;22.08;7.63;;;;;;;9.71;93.98;102237.69;6250580;28;20068;-75
2023/02/15 13:27:53;;;;;;;12.60;6.57;;;;;;;9.96;92.70;102225.66;6258704;28;20045;-75
2023/02/15 13:30:55;;;;;;;17.95;7.07;;;;;;;10.04;89.25;102222.84;6267100;28;20056;-75
2023/02/15 13:34:03;;;;;;;17.67;6.80;;;;;;;9.83;89.21;102213.75;6267180;28;20056;-75
2023/02/15 13:37:11;;;;;;;23.27;8.15;;;;;;;9.73;89.70;102207.91;6256569;28;20056;-75
2023/02/15 13:40:20;;;;;;;20.27;7.53;;;;;;;9.80;90.72;102204.19;6272263;28;20052;-76
2023/02/15 13:43:34;;;;;;;15.52;6.90;;;;;;;9.79;92.01;102199.00;6257185;28;20052;-75
2023/02/15 13:46:50;;;;;;;16.23;6.68;;;;;;;9.75;92.61;102194.72;6267926;28;20045;-75
2023/02/15 13:50:10;;;;;;;16.58;6.90;;;;;;;9.82;92.23;102198.91;6274785;28;20117;-75
2023/02/15 13:53:34;;;;;;;18.13;8.18;;;;;;;9.78;93.25;102194.66;6258439;28;20187;-76
2023/02/15 13:56:50;;;;;;;17.13;6.85;;;;;;;9.77;91.76;102201.66;6250105;28;20056;-75
2023/02/15 14:00:03;;;;;;;15.57;6.85;;;;;;;9.82;91.98;102193.66;6259579;28;20045;-75
2023/02/15 14:03:29;;;;;;;22.95;7.90;;;;;;;9.88;91.37;102185.59;6263333;28;20045;-75
2023/02/15 14:06:52;;;;;;;15.43;7.18;;;;;;;9.78;92.49;102187.63;6263074;28;20054;-77
2023/02/15 14:10:07;;;;;;;19.17;7.80;;;;;;;9.73;92.34;102188.66;6264335;28;20053;-76
2023/02/15 14:13:35;;;;;;;19.40;7.13;;;;;;;9.63;95.36;102191.53;6274914;28;20049;-76
2023/02/15 14:16:44;;;;;;;18.10;7.55;;;;;;;9.56;94.46;102181.22;6274212;28;20040;-76
2023/02/15 14:19:49;;;;;;;15.93;7.03;;;;;;;9.59;95.31;102184.63;6274806;28;20052;-77
2023/02/15 14:23:02;;;;;;;18.88;8.07;;;;;;;9.65;98.01;102179.22;6274324;28;20048;-77
2023/02/15 14:26:06;;;;;;;14.38;6.75;;;;;;;9.69;98.20;102179.16;6267979;28;20052;-76
2023/02/15 14:29:21;;;;;;;18.83;7.28;;;;;;;9.61;97.14;102187.22;6263735;28;20136;-78
2023/02/15 14:32:32;;;;;;;16.17;7.30;;;;;;;9.55;98.17;102183.00;6270863;28;20345;-77
2023/02/15 14:35:34;;;;;;;20.83;8.25;;;;;;;9.55;96.24;102176.88;6268400;28;20047;-77
2023/02/15 14:38:55;;;;;;;15.85;7.78;;;;;;;9.59;96.78;102182.00;6264299;28;20037;-77
2023/02/15 14:41:59;;;;;;;17.20;7.60;;;;;;;9.49;95.69;102184.91;6266476;28;20045;-79